createdAt,value
2023-03-22T06:20:11.396Z,1001.50
2023-03-22T06:30:11.202Z,1001.57
2023-03-22T06:40:11.171Z,1001.67
2023-03-22T06:50:11.331Z,1001.53
2023-03-22T07:00:11.083Z,1001.56
2023-03-22T07:10:11.245Z,1001.51
2023-03-22T07:20:11.228Z,1001.45
2023-03-22T07:30:11.200Z,1001.53
2023-03-22T07:40:11.261Z,1001.40
2023-03-22T07:50:11.057Z,1001.33
2023-03-22T08:00:11.187Z,1001.29
2023-03-22T08:10:11.471Z,1001.21
2023-03-22T08:20:11.216Z,1001.10
2023-03-22T08:30:11.294Z,1001.04
2023-03-22T08:40:11.408Z,1000.92
2023-03-22T08:50:11.333Z,1000.87
2023-03-22T09:00:11.278Z,1000.67
2023-03-22T09:10:11.441Z,1000.63
2023-03-22T09:20:13.076Z,1000.62
2023-03-22T09:30:11.382Z,1000.45
2023-03-22T09:40:11.225Z,1000.25
2023-03-22T09:50:11.240Z,1000.29
2023-03-22T10:00:11.363Z,999.97
2023-03-22T10:10:11.339Z,999.87
2023-03-22T10:20:11.385Z,999.83
2023-03-22T10:30:11.324Z,999.76
2023-03-22T10:40:11.444Z,999.65
2023-03-22T10:50:11.285Z,999.73
2023-03-22T11:00:11.441Z,999.69
2023-03-22T11:10:11.458Z,999.68
2023-03-22T11:20:11.555Z,999.41
2023-03-22T11:30:11.340Z,999.52
2023-03-22T11:40:11.412Z,999.63
2023-03-22T11:50:11.595Z,999.56
2023-03-22T12:00:11.439Z,999.57
2023-03-22T12:10:11.406Z,999.57
2023-03-22T12:20:11.363Z,999.67
2023-03-22T12:30:11.294Z,999.63
2023-03-22T12:40:11.289Z,999.49
2023-03-22T12:50:11.365Z,999.40
2023-03-22T13:00:11.513Z,999.38
2023-03-22T13:10:11.387Z,999.20
2023-03-22T13:20:11.571Z,999.17
2023-03-22T13:30:11.429Z,999.13
2023-03-22T13:40:11.691Z,999.06
2023-03-22T13:50:11.463Z,999.04
2023-03-22T14:00:13.544Z,998.95
2023-03-22T14:10:11.439Z,999.25
2023-03-22T14:20:11.534Z,999.29
2023-03-22T15:00:11.609Z,999.32
2023-03-22T15:10:11.558Z,999.41
2023-03-22T15:20:11.525Z,999.45
2023-03-22T15:30:11.802Z,999.36
2023-03-22T15:40:11.756Z,999.34
2023-03-22T15:50:11.616Z,999.21
2023-03-22T16:00:11.784Z,999.17
2023-03-22T16:10:11.660Z,999.04
2023-03-22T16:20:11.742Z,999.16
2023-03-22T16:30:11.585Z,999.25
2023-03-22T16:40:11.539Z,999.26
2023-03-22T16:50:11.602Z,999.59
2023-03-22T17:00:11.692Z,999.76
2023-03-22T17:10:11.842Z,999.57
2023-03-22T17:20:11.599Z,999.44
2023-03-22T17:30:11.813Z,999.50
2023-03-22T17:40:32.514Z,999.44
2023-03-22T17:50:11.591Z,999.57
2023-03-22T18:00:11.652Z,999.64
2023-03-22T18:10:11.634Z,999.74
2023-03-22T18:20:24.657Z,999.69
2023-03-22T18:30:11.752Z,999.63
2023-03-22T18:50:11.809Z,999.26
2023-03-22T19:00:11.650Z,999.29
2023-03-22T19:10:11.590Z,999.15
2023-03-22T19:20:11.679Z,999.18
